首页
METAR-TAF:

METAR-TAF

机场 :

科纳克里国际机场

科納克里, 几内亚

纬度: 09-34N, 经度: 013-37W, 海拔: 26米

当前天气观测

该预报发布于54分钟前的11:00 UTC
风速4节,风向
温度 25°C
湿度 100%
气压 1017 hPa
能見度: 5000
多云层高于1200英尺
阴天层高于10000英尺
毛毛雨,

METAR: GUCY 231100Z 18004KT 5000 DZ BKN012 OVC100 25/25 Q1017 NOSIG

时间: 11:54 (11:54 UTC)

预报

该预报发布于54分钟前的11:00 UTC
预报有效从23日的 12点(UTC)到 24日的 18点(UTC)
风速8节,风向西转西南
能見度: 8000
多云层高于1200英尺
多云层高于10000英尺
小雨
成为
从 23日的 12点(UTC)到 23日的 16点(UTC)
能見度: 5000
多云层高于1000英尺
多云层高于10000英尺
小雨
短暂存在
从 23日的 18点(UTC)到 23日的 23点(UTC)
风速10节,风向

TAF: GUCY 231100Z 2312/2418 24008KT 8000 -RA BKN012 BKN100 BECMG 2312/2316 5000 -RA BKN010 BKN100 TEMPO 2318/2323 17010KT

超过4000个机场的气象观测和天气预报(METAR&TAF报告)。

可查询的气象台以黄色和红色小点在地图上表示。

将鼠标移到小点上方,可查看气象台名称。

然后点击查看天气观测和预报。

如需切换地图:点击带黑十字的绿色按钮放大地图;点击带横线的绿色按钮缩小地图;或者点击绿色箭头查看邻近地区的地图。


METAR-TAF: